sensor_id;sensor_type;location;lat;lon;timestamp;pressure;altitude;pressure_sealevel;temperature;humidity
37170;BME280;23062;13.952;100.608;2022-09-06T00:03:31;749.45;;;-142.63;73.60
37170;BME280;23062;13.952;100.608;2022-09-06T00:08:20;749.45;;;-142.63;73.43
37170;BME280;23062;13.952;100.608;2022-09-06T00:13:11;749.51;;;-142.63;73.05
37170;BME280;23062;13.952;100.608;2022-09-06T00:18:02;749.56;;;-142.63;72.93
37170;BME280;23062;13.952;100.608;2022-09-06T00:22:55;749.57;;;-142.63;72.58
37170;BME280;23062;13.952;100.608;2022-09-06T00:27:43;749.63;;;-142.63;72.53
37170;BME280;23062;13.952;100.608;2022-09-06T00:32:33;749.69;;;-142.63;72.40
37170;BME280;23062;13.952;100.608;2022-09-06T00:37:23;749.74;;;-142.63;72.38
37170;BME280;23062;13.952;100.608;2022-09-06T00:42:13;749.76;;;-142.63;72.32
37170;BME280;23062;13.952;100.608;2022-09-06T00:47:03;749.79;;;-142.63;71.82
37170;BME280;23062;13.952;100.608;2022-09-06T00:52:04;749.82;;;-142.63;71.59
37170;BME280;23062;13.952;100.608;2022-09-06T00:56:55;749.80;;;-142.63;71.06
37170;BME280;23062;13.952;100.608;2022-09-06T01:01:46;749.89;;;-142.63;70.99
37170;BME280;23062;13.952;100.608;2022-09-06T01:06:58;749.83;;;-142.63;70.41
37170;BME280;23062;13.952;100.608;2022-09-06T01:17:11;749.78;;;-142.63;69.71
37170;BME280;23062;13.952;100.608;2022-09-06T01:27:23;749.78;;;-142.63;69.06
37170;BME280;23062;13.952;100.608;2022-09-06T01:32:09;749.92;;;-142.63;68.92
37170;BME280;23062;13.952;100.608;2022-09-06T01:37:07;749.97;;;-142.63;68.43
37170;BME280;23062;13.952;100.608;2022-09-06T01:41:55;749.97;;;-142.63;68.43
37170;BME280;23062;13.952;100.608;2022-09-06T01:46:51;750.03;;;-142.63;69.12
37170;BME280;23062;13.952;100.608;2022-09-06T01:52:02;750.01;;;-142.63;68.14
37170;BME280;23062;13.952;100.608;2022-09-06T02:07:20;749.92;;;-142.63;68.75
37170;BME280;23062;13.952;100.608;2022-09-06T02:12:08;749.88;;;-142.63;66.48
37170;BME280;23062;13.952;100.608;2022-09-06T02:17:01;749.88;;;-142.63;65.75
37170;BME280;23062;13.952;100.608;2022-09-06T02:21:51;749.81;;;-142.63;65.46
37170;BME280;23062;13.952;100.608;2022-09-06T02:26:43;749.75;;;-142.63;65.23
37170;BME280;23062;13.952;100.608;2022-09-06T02:36:51;749.64;;;-142.63;64.58
37170;BME280;23062;13.952;100.608;2022-09-06T02:41:42;749.67;;;-142.63;64.07
37170;BME280;23062;13.952;100.608;2022-09-06T02:46:34;749.66;;;-142.63;64.24
37170;BME280;23062;13.952;100.608;2022-09-06T02:51:24;749.68;;;-142.63;64.09
37170;BME280;23062;13.952;100.608;2022-09-06T02:56:13;749.72;;;-142.63;63.42
37170;BME280;23062;13.952;100.608;2022-09-06T03:01:03;749.68;;;-142.63;63.37
37170;BME280;23062;13.952;100.608;2022-09-06T03:05:54;749.71;;;-142.63;63.47
37170;BME280;23062;13.952;100.608;2022-09-06T03:10:52;749.63;;;-142.63;63.38
37170;BME280;23062;13.952;100.608;2022-09-06T03:15:42;749.66;;;-142.63;63.67
37170;BME280;23062;13.952;100.608;2022-09-06T03:20:32;749.58;;;-142.63;63.72
37170;BME280;23062;13.952;100.608;2022-09-06T03:25:22;749.55;;;-142.63;63.53
37170;BME280;23062;13.952;100.608;2022-09-06T03:30:12;749.50;;;-142.63;63.59
37170;BME280;23062;13.952;100.608;2022-09-06T03:35:02;749.50;;;-142.63;63.46
37170;BME280;23062;13.952;100.608;2022-09-06T03:39:52;749.50;;;-142.63;63.55
37170;BME280;23062;13.952;100.608;2022-09-06T03:44:42;749.49;;;-142.63;63.55
37170;BME280;23062;13.952;100.608;2022-09-06T03:49:32;749.39;;;-142.63;63.79
37170;BME280;23062;13.952;100.608;2022-09-06T03:54:21;749.21;;;-142.63;63.44
37170;BME280;23062;13.952;100.608;2022-09-06T03:59:11;749.23;;;-142.63;63.09
37170;BME280;23062;13.952;100.608;2022-09-06T04:04:02;749.03;;;-142.63;63.25
37170;BME280;23062;13.952;100.608;2022-09-06T04:08:51;749.04;;;-142.63;63.67
37170;BME280;23062;13.952;100.608;2022-09-06T04:13:41;749.02;;;-142.63;63.45
37170;BME280;23062;13.952;100.608;2022-09-06T04:18:32;748.89;;;-142.63;63.35
37170;BME280;23062;13.952;100.608;2022-09-06T04:23:22;748.68;;;-142.63;62.39
37170;BME280;23062;13.952;100.608;2022-09-06T04:28:12;748.60;;;-142.63;65.38
37170;BME280;23062;13.952;100.608;2022-09-06T04:33:01;748.42;;;-142.63;63.06
37170;BME280;23062;13.952;100.608;2022-09-06T04:37:51;748.49;;;-142.63;63.17
37170;BME280;23062;13.952;100.608;2022-09-06T04:42:41;748.41;;;-142.63;62.44
37170;BME280;23062;13.952;100.608;2022-09-06T04:47:31;748.19;;;-142.63;61.21
37170;BME280;23062;13.952;100.608;2022-09-06T04:52:21;748.21;;;-142.63;61.64
37170;BME280;23062;13.952;100.608;2022-09-06T04:57:11;748.28;;;-142.63;62.20
37170;BME280;23062;13.952;100.608;2022-09-06T05:02:01;748.26;;;-142.63;62.46
37170;BME280;23062;13.952;100.608;2022-09-06T05:06:59;748.15;;;-142.63;61.93
37170;BME280;23062;13.952;100.608;2022-09-06T05:11:49;748.08;;;-142.63;62.46
37170;BME280;23062;13.952;100.608;2022-09-06T05:16:39;747.99;;;-142.63;62.31
37170;BME280;23062;13.952;100.608;2022-09-06T05:21:28;747.74;;;-142.63;62.38
37170;BME280;23062;13.952;100.608;2022-09-06T05:26:18;747.73;;;-142.63;62.41
37170;BME280;23062;13.952;100.608;2022-09-06T05:31:10;747.58;;;-142.63;62.64
37170;BME280;23062;13.952;100.608;2022-09-06T05:36:00;747.34;;;-142.63;61.86
37170;BME280;23062;13.952;100.608;2022-09-06T05:40:51;747.20;;;-142.63;61.87
37170;BME280;23062;13.952;100.608;2022-09-06T05:45:40;747.16;;;-142.63;62.55
37170;BME280;23062;13.952;100.608;2022-09-06T05:50:30;747.12;;;-142.63;62.88
37170;BME280;23062;13.952;100.608;2022-09-06T05:55:20;747.04;;;-142.63;62.78
37170;BME280;23062;13.952;100.608;2022-09-06T06:00:11;746.86;;;-142.63;62.33
37170;BME280;23062;13.952;100.608;2022-09-06T06:05:00;746.81;;;-142.63;62.82
37170;BME280;23062;13.952;100.608;2022-09-06T06:09:50;746.75;;;-142.63;62.93
37170;BME280;23062;13.952;100.608;2022-09-06T06:14:40;746.63;;;-142.63;62.51
37170;BME280;23062;13.952;100.608;2022-09-06T06:19:30;746.48;;;-142.63;62.04
37170;BME280;23062;13.952;100.608;2022-09-06T06:24:21;746.37;;;-142.63;61.85
37170;BME280;23062;13.952;100.608;2022-09-06T06:29:11;746.39;;;-142.63;62.42
37170;BME280;23062;13.952;100.608;2022-09-06T06:34:01;746.21;;;-142.63;61.99
37170;BME280;23062;13.952;100.608;2022-09-06T06:38:53;745.82;;;-142.63;62.12
37170;BME280;23062;13.952;100.608;2022-09-06T06:43:43;745.81;;;-142.63;62.26
37170;BME280;23062;13.952;100.608;2022-09-06T06:48:33;745.66;;;-142.63;61.98
37170;BME280;23062;13.952;100.608;2022-09-06T06:53:22;745.62;;;-142.63;61.75
37170;BME280;23062;13.952;100.608;2022-09-06T06:58:13;745.56;;;-142.63;61.89
37170;BME280;23062;13.952;100.608;2022-09-06T07:03:03;745.56;;;-142.63;61.88
37170;BME280;23062;13.952;100.608;2022-09-06T07:07:54;745.25;;;-142.63;60.85
37170;BME280;23062;13.952;100.608;2022-09-06T07:12:43;745.26;;;-142.63;61.22
37170;BME280;23062;13.952;100.608;2022-09-06T07:17:33;745.18;;;-142.63;61.01
37170;BME280;23062;13.952;100.608;2022-09-06T07:22:23;745.12;;;-142.63;60.29
37170;BME280;23062;13.952;100.608;2022-09-06T07:27:13;745.19;;;-142.63;60.23
37170;BME280;23062;13.952;100.608;2022-09-06T07:32:04;745.07;;;-142.63;59.28
37170;BME280;23062;13.952;100.608;2022-09-06T07:36:55;745.30;;;-142.63;60.36
37170;BME280;23062;13.952;100.608;2022-09-06T07:41:45;745.14;;;-142.63;60.47
37170;BME280;23062;13.952;100.608;2022-09-06T07:46:36;745.15;;;-142.63;59.82
37170;BME280;23062;13.952;100.608;2022-09-06T07:51:26;745.17;;;-142.63;59.87
37170;BME280;23062;13.952;100.608;2022-09-06T07:56:17;745.27;;;-142.63;60.44
37170;BME280;23062;13.952;100.608;2022-09-06T08:01:30;745.25;;;-142.63;60.72
37170;BME280;23062;13.952;100.608;2022-09-06T08:06:22;745.19;;;-142.63;60.95
37170;BME280;23062;13.952;100.608;2022-09-06T08:11:12;745.18;;;-142.63;61.19
37170;BME280;23062;13.952;100.608;2022-09-06T08:16:04;745.15;;;-142.63;61.05
37170;BME280;23062;13.952;100.608;2022-09-06T08:20:55;745.16;;;-142.63;61.18
37170;BME280;23062;13.952;100.608;2022-09-06T08:25:54;745.18;;;-142.63;61.11
37170;BME280;23062;13.952;100.608;2022-09-06T08:30:35;745.13;;;-142.63;61.43
37170;BME280;23062;13.952;100.608;2022-09-06T08:35:25;745.22;;;-142.63;65.90
37170;BME280;23062;13.952;100.608;2022-09-06T08:40:18;745.43;;;-142.63;69.34
37170;BME280;23062;13.952;100.608;2022-09-06T08:45:08;745.79;;;-142.63;76.59
37170;BME280;23062;13.952;100.608;2022-09-06T08:50:08;746.00;;;-142.63;81.54
37170;BME280;23062;13.952;100.608;2022-09-06T08:55:14;746.23;;;-142.63;80.62
37170;BME280;23062;13.952;100.608;2022-09-06T09:00:04;746.20;;;-142.63;80.13
37170;BME280;23062;13.952;100.608;2022-09-06T09:05:03;746.23;;;-142.63;81.06
37170;BME280;23062;13.952;100.608;2022-09-06T09:09:56;746.24;;;-142.63;82.13
37170;BME280;23062;13.952;100.608;2022-09-06T09:14:49;746.42;;;-142.63;83.18
37170;BME280;23062;13.952;100.608;2022-09-06T09:19:39;746.60;;;-142.63;83.64
37170;BME280;23062;13.952;100.608;2022-09-06T09:24:30;746.85;;;-142.63;83.04
37170;BME280;23062;13.952;100.608;2022-09-06T09:29:19;746.89;;;-142.63;82.41
37170;BME280;23062;13.952;100.608;2022-09-06T09:34:11;746.81;;;-142.63;82.37
37170;BME280;23062;13.952;100.608;2022-09-06T09:39:07;747.17;;;-142.63;81.12
37170;BME280;23062;13.952;100.608;2022-09-06T09:43:58;747.25;;;-142.63;79.13
37170;BME280;23062;13.952;100.608;2022-09-06T09:54:08;747.13;;;-142.63;77.39
37170;BME280;23062;13.952;100.608;2022-09-06T09:58:59;747.06;;;-142.63;76.95
37170;BME280;23062;13.952;100.608;2022-09-06T10:03:51;747.04;;;-142.63;77.27
37170;BME280;23062;13.952;100.608;2022-09-06T10:08:42;747.20;;;-142.63;77.26
37170;BME280;23062;13.952;100.608;2022-09-06T10:13:32;747.36;;;-142.63;77.19
37170;BME280;23062;13.952;100.608;2022-09-06T10:18:34;747.47;;;-142.63;79.36
37170;BME280;23062;13.952;100.608;2022-09-06T10:23:33;747.59;;;-142.63;82.35
37170;BME280;23062;13.952;100.608;2022-09-06T10:28:30;748.05;;;-142.63;88.25
37170;BME280;23062;13.952;100.608;2022-09-06T10:33:23;748.03;;;-142.63;91.13
37170;BME280;23062;13.952;100.608;2022-09-06T10:38:34;748.10;;;-142.63;92.60
37170;BME280;23062;13.952;100.608;2022-09-06T10:43:24;747.78;;;-142.63;89.82
37170;BME280;23062;13.952;100.608;2022-09-06T10:48:41;747.51;;;-142.63;86.55
37170;BME280;23062;13.952;100.608;2022-09-06T10:53:40;747.67;;;-142.63;85.09
37170;BME280;23062;13.952;100.608;2022-09-06T10:58:31;747.79;;;-142.63;85.82
37170;BME280;23062;13.952;100.608;2022-09-06T11:03:36;747.95;;;-142.63;85.82
37170;BME280;23062;13.952;100.608;2022-09-06T11:08:42;748.06;;;-142.63;84.03
37170;BME280;23062;13.952;100.608;2022-09-06T11:13:32;748.13;;;-142.63;84.20
37170;BME280;23062;13.952;100.608;2022-09-06T11:18:44;748.38;;;-142.63;85.04
37170;BME280;23062;13.952;100.608;2022-09-06T11:28:34;748.43;;;-142.63;84.61
37170;BME280;23062;13.952;100.608;2022-09-06T11:33:28;748.55;;;-142.63;85.70
37170;BME280;23062;13.952;100.608;2022-09-06T11:38:26;748.38;;;-142.63;85.17
37170;BME280;23062;13.952;100.608;2022-09-06T11:43:40;748.38;;;-142.63;86.71
37170;BME280;23062;13.952;100.608;2022-09-06T11:53:20;748.38;;;-142.63;84.64
37170;BME280;23062;13.952;100.608;2022-09-06T12:03:07;748.52;;;-142.63;84.15
37170;BME280;23062;13.952;100.608;2022-09-06T12:08:31;748.52;;;-142.63;84.16
37170;BME280;23062;13.952;100.608;2022-09-06T12:13:42;748.47;;;-142.63;84.28
37170;BME280;23062;13.952;100.608;2022-09-06T12:23:41;748.48;;;-142.63;84.42
37170;BME280;23062;13.952;100.608;2022-09-06T12:28:48;748.37;;;-142.63;85.39
37170;BME280;23062;13.952;100.608;2022-09-06T12:33:39;748.28;;;-142.63;85.00
37170;BME280;23062;13.952;100.608;2022-09-06T12:38:30;748.40;;;-142.63;84.77
37170;BME280;23062;13.952;100.608;2022-09-06T12:43:20;748.47;;;-142.63;84.36
37170;BME280;23062;13.952;100.608;2022-09-06T12:48:11;748.66;;;-142.63;84.66
37170;BME280;23062;13.952;100.608;2022-09-06T12:53:16;748.67;;;-142.63;84.42
37170;BME280;23062;13.952;100.608;2022-09-06T12:57:56;748.72;;;-142.63;83.43
37170;BME280;23062;13.952;100.608;2022-09-06T13:02:52;748.75;;;-142.63;85.00
37170;BME280;23062;13.952;100.608;2022-09-06T13:07:49;749.00;;;-142.63;85.46
37170;BME280;23062;13.952;100.608;2022-09-06T13:12:40;749.36;;;-142.63;87.12
37170;BME280;23062;13.952;100.608;2022-09-06T13:17:30;749.02;;;-142.63;84.64
37170;BME280;23062;13.952;100.608;2022-09-06T13:22:39;748.92;;;-142.63;83.43
37170;BME280;23062;13.952;100.608;2022-09-06T13:27:34;748.85;;;-142.63;82.70
37170;BME280;23062;13.952;100.608;2022-09-06T13:32:27;748.90;;;-142.63;82.62
37170;BME280;23062;13.952;100.608;2022-09-06T13:37:17;748.89;;;-142.63;81.61
37170;BME280;23062;13.952;100.608;2022-09-06T13:42:09;749.02;;;-142.63;80.56
37170;BME280;23062;13.952;100.608;2022-09-06T13:46:59;748.97;;;-142.63;79.99
37170;BME280;23062;13.952;100.608;2022-09-06T13:51:49;749.07;;;-142.63;79.98
37170;BME280;23062;13.952;100.608;2022-09-06T13:56:40;749.18;;;-142.63;78.41
37170;BME280;23062;13.952;100.608;2022-09-06T14:01:32;749.31;;;-142.63;77.83
37170;BME280;23062;13.952;100.608;2022-09-06T14:06:23;749.44;;;-142.63;77.41
37170;BME280;23062;13.952;100.608;2022-09-06T14:11:13;749.54;;;-142.63;77.41
37170;BME280;23062;13.952;100.608;2022-09-06T14:16:03;749.57;;;-142.63;76.87
37170;BME280;23062;13.952;100.608;2022-09-06T14:20:54;749.63;;;-142.63;76.62
37170;BME280;23062;13.952;100.608;2022-09-06T14:25:45;749.48;;;-142.63;76.36
37170;BME280;23062;13.952;100.608;2022-09-06T14:30:35;749.37;;;-142.63;76.04
37170;BME280;23062;13.952;100.608;2022-09-06T14:35:25;749.47;;;-142.63;76.11
37170;BME280;23062;13.952;100.608;2022-09-06T14:40:15;749.57;;;-142.63;76.09
37170;BME280;23062;13.952;100.608;2022-09-06T14:45:06;749.67;;;-142.63;76.25
37170;BME280;23062;13.952;100.608;2022-09-06T14:49:56;749.68;;;-142.63;75.82
37170;BME280;23062;13.952;100.608;2022-09-06T14:54:46;749.71;;;-142.63;75.80
37170;BME280;23062;13.952;100.608;2022-09-06T14:59:35;749.84;;;-142.63;76.13
37170;BME280;23062;13.952;100.608;2022-09-06T15:04:26;750.13;;;-142.63;76.43
37170;BME280;23062;13.952;100.608;2022-09-06T15:09:18;750.23;;;-142.63;76.87
37170;BME280;23062;13.952;100.608;2022-09-06T15:14:15;750.18;;;-142.63;77.67
37170;BME280;23062;13.952;100.608;2022-09-06T15:19:05;750.15;;;-142.63;77.41
37170;BME280;23062;13.952;100.608;2022-09-06T15:23:56;750.30;;;-142.63;77.65
37170;BME280;23062;13.952;100.608;2022-09-06T15:28:47;750.40;;;-142.63;78.28
37170;BME280;23062;13.952;100.608;2022-09-06T15:33:37;750.36;;;-142.63;78.93
37170;BME280;23062;13.952;100.608;2022-09-06T15:38:28;750.24;;;-142.63;78.68
37170;BME280;23062;13.952;100.608;2022-09-06T15:43:17;750.11;;;-142.63;78.66
37170;BME280;23062;13.952;100.608;2022-09-06T15:48:07;750.15;;;-142.63;78.51
37170;BME280;23062;13.952;100.608;2022-09-06T15:52:57;750.19;;;-142.63;78.46
37170;BME280;23062;13.952;100.608;2022-09-06T15:57:47;750.26;;;-142.63;78.16
37170;BME280;23062;13.952;100.608;2022-09-06T16:02:36;750.31;;;-142.63;78.13
37170;BME280;23062;13.952;100.608;2022-09-06T16:07:26;750.36;;;-142.63;78.02
37170;BME280;23062;13.952;100.608;2022-09-06T16:12:17;750.33;;;-142.63;77.86
37170;BME280;23062;13.952;100.608;2022-09-06T16:17:07;750.44;;;-142.63;77.68
37170;BME280;23062;13.952;100.608;2022-09-06T16:21:56;750.24;;;-142.63;77.32
37170;BME280;23062;13.952;100.608;2022-09-06T16:26:46;750.15;;;-142.63;77.29
37170;BME280;23062;13.952;100.608;2022-09-06T16:31:36;750.21;;;-142.63;77.22
37170;BME280;23062;13.952;100.608;2022-09-06T16:36:27;750.18;;;-142.63;77.35
37170;BME280;23062;13.952;100.608;2022-09-06T16:41:21;750.10;;;-142.63;77.62
37170;BME280;23062;13.952;100.608;2022-09-06T16:46:13;750.05;;;-142.63;77.93
37170;BME280;23062;13.952;100.608;2022-09-06T16:51:13;750.05;;;-142.63;78.26
37170;BME280;23062;13.952;100.608;2022-09-06T16:56:05;750.04;;;-142.63;78.21
37170;BME280;23062;13.952;100.608;2022-09-06T17:00:55;750.05;;;-142.63;78.12
37170;BME280;23062;13.952;100.608;2022-09-06T17:05:52;750.06;;;-142.63;78.02
37170;BME280;23062;13.952;100.608;2022-09-06T17:10:41;749.86;;;-142.63;77.61
37170;BME280;23062;13.952;100.608;2022-09-06T17:15:31;749.76;;;-142.63;77.70
37170;BME280;23062;13.952;100.608;2022-09-06T17:20:22;749.83;;;-142.63;78.29
37170;BME280;23062;13.952;100.608;2022-09-06T17:25:12;749.87;;;-142.63;78.29
37170;BME280;23062;13.952;100.608;2022-09-06T17:30:02;749.91;;;-142.63;78.60
37170;BME280;23062;13.952;100.608;2022-09-06T17:34:52;749.88;;;-142.63;78.62
37170;BME280;23062;13.952;100.608;2022-09-06T17:39:42;749.90;;;-142.63;78.92
37170;BME280;23062;13.952;100.608;2022-09-06T17:44:32;749.80;;;-142.63;79.15
37170;BME280;23062;13.952;100.608;2022-09-06T17:49:22;749.66;;;-142.63;79.08
37170;BME280;23062;13.952;100.608;2022-09-06T17:54:13;749.66;;;-142.63;79.17
37170;BME280;23062;13.952;100.608;2022-09-06T17:59:07;749.58;;;-142.63;79.19
37170;BME280;23062;13.952;100.608;2022-09-06T18:03:58;749.60;;;-142.63;79.08
37170;BME280;23062;13.952;100.608;2022-09-06T18:08:49;749.68;;;-142.63;79.47
37170;BME280;23062;13.952;100.608;2022-09-06T18:13:39;749.68;;;-142.63;79.45
37170;BME280;23062;13.952;100.608;2022-09-06T18:18:30;749.68;;;-142.63;79.62
37170;BME280;23062;13.952;100.608;2022-09-06T18:23:20;749.52;;;-142.63;79.55
37170;BME280;23062;13.952;100.608;2022-09-06T18:28:10;749.42;;;-142.63;79.55
37170;BME280;23062;13.952;100.608;2022-09-06T18:33:01;749.36;;;-142.63;79.60
37170;BME280;23062;13.952;100.608;2022-09-06T18:37:52;749.30;;;-142.63;79.58
37170;BME280;23062;13.952;100.608;2022-09-06T18:42:44;749.30;;;-142.63;79.76
37170;BME280;23062;13.952;100.608;2022-09-06T18:47:35;749.25;;;-142.63;80.00
37170;BME280;23062;13.952;100.608;2022-09-06T18:52:25;749.22;;;-142.63;80.31
37170;BME280;23062;13.952;100.608;2022-09-06T18:57:15;749.25;;;-142.63;80.13
37170;BME280;23062;13.952;100.608;2022-09-06T19:02:05;749.20;;;-142.63;79.66
37170;BME280;23062;13.952;100.608;2022-09-06T19:06:54;749.18;;;-142.63;80.02
37170;BME280;23062;13.952;100.608;2022-09-06T19:11:44;749.05;;;-142.63;80.13
37170;BME280;23062;13.952;100.608;2022-09-06T19:16:35;749.09;;;-142.63;80.10
37170;BME280;23062;13.952;100.608;2022-09-06T19:21:25;749.06;;;-142.63;80.03
37170;BME280;23062;13.952;100.608;2022-09-06T19:26:17;749.05;;;-142.63;79.99
37170;BME280;23062;13.952;100.608;2022-09-06T19:31:08;749.00;;;-142.63;79.89
37170;BME280;23062;13.952;100.608;2022-09-06T19:36:00;748.95;;;-142.63;80.25
37170;BME280;23062;13.952;100.608;2022-09-06T19:40:50;748.91;;;-142.63;80.57
37170;BME280;23062;13.952;100.608;2022-09-06T19:45:41;749.03;;;-142.63;80.23
37170;BME280;23062;13.952;100.608;2022-09-06T19:50:33;749.16;;;-142.63;80.27
37170;BME280;23062;13.952;100.608;2022-09-06T19:55:23;749.17;;;-142.63;80.16
37170;BME280;23062;13.952;100.608;2022-09-06T20:00:13;749.18;;;-142.63;80.08
37170;BME280;23062;13.952;100.608;2022-09-06T20:05:03;749.12;;;-142.63;80.06
37170;BME280;23062;13.952;100.608;2022-09-06T20:09:53;748.99;;;-142.63;80.07
37170;BME280;23062;13.952;100.608;2022-09-06T20:14:43;748.90;;;-142.63;80.28
37170;BME280;23062;13.952;100.608;2022-09-06T20:19:33;748.91;;;-142.63;80.55
37170;BME280;23062;13.952;100.608;2022-09-06T20:24:23;748.91;;;-142.63;80.55
37170;BME280;23062;13.952;100.608;2022-09-06T20:29:13;748.86;;;-142.63;80.31
37170;BME280;23062;13.952;100.608;2022-09-06T20:34:03;748.88;;;-142.63;80.65
37170;BME280;23062;13.952;100.608;2022-09-06T20:38:53;748.95;;;-142.63;80.58
37170;BME280;23062;13.952;100.608;2022-09-06T20:43:44;748.97;;;-142.63;80.75
37170;BME280;23062;13.952;100.608;2022-09-06T20:48:35;748.96;;;-142.63;80.66
37170;BME280;23062;13.952;100.608;2022-09-06T20:53:25;749.04;;;-142.63;80.29
37170;BME280;23062;13.952;100.608;2022-09-06T20:58:15;749.10;;;-142.63;80.25
37170;BME280;23062;13.952;100.608;2022-09-06T21:03:05;749.44;;;-142.63;82.37
37170;BME280;23062;13.952;100.608;2022-09-06T21:07:55;749.53;;;-142.63;83.14
37170;BME280;23062;13.952;100.608;2022-09-06T21:12:46;749.53;;;-142.63;83.65
37170;BME280;23062;13.952;100.608;2022-09-06T21:17:36;749.57;;;-142.63;84.08
37170;BME280;23062;13.952;100.608;2022-09-06T21:22:26;749.53;;;-142.63;84.21
37170;BME280;23062;13.952;100.608;2022-09-06T21:27:16;749.58;;;-142.63;84.40
37170;BME280;23062;13.952;100.608;2022-09-06T21:32:06;749.59;;;-142.63;84.71
37170;BME280;23062;13.952;100.608;2022-09-06T21:36:55;749.61;;;-142.63;85.03
37170;BME280;23062;13.952;100.608;2022-09-06T21:41:46;749.56;;;-142.63;85.44
37170;BME280;23062;13.952;100.608;2022-09-06T21:46:37;749.52;;;-142.63;85.61
37170;BME280;23062;13.952;100.608;2022-09-06T21:51:27;749.56;;;-142.63;85.83
37170;BME280;23062;13.952;100.608;2022-09-06T21:56:17;749.63;;;-142.63;86.33
37170;BME280;23062;13.952;100.608;2022-09-06T22:01:08;750.26;;;-142.63;89.49
37170;BME280;23062;13.952;100.608;2022-09-06T22:05:58;750.35;;;-142.63;90.68
37170;BME280;23062;13.952;100.608;2022-09-06T22:10:47;750.34;;;-142.63;91.11
37170;BME280;23062;13.952;100.608;2022-09-06T22:15:38;750.44;;;-142.63;91.96
37170;BME280;23062;13.952;100.608;2022-09-06T22:20:28;750.32;;;-142.63;90.91
37170;BME280;23062;13.952;100.608;2022-09-06T22:25:17;750.27;;;-142.63;90.26
37170;BME280;23062;13.952;100.608;2022-09-06T22:30:09;750.14;;;-142.63;88.84
37170;BME280;23062;13.952;100.608;2022-09-06T22:34:59;749.97;;;-142.63;87.32
37170;BME280;23062;13.952;100.608;2022-09-06T22:39:49;749.85;;;-142.63;86.68
37170;BME280;23062;13.952;100.608;2022-09-06T22:44:39;749.81;;;-142.63;86.83
37170;BME280;23062;13.952;100.608;2022-09-06T22:49:29;749.79;;;-142.63;86.06
37170;BME280;23062;13.952;100.608;2022-09-06T22:54:19;750.06;;;-142.63;85.43
37170;BME280;23062;13.952;100.608;2022-09-06T22:59:09;750.14;;;-142.63;85.52
37170;BME280;23062;13.952;100.608;2022-09-06T23:03:59;750.23;;;-142.63;85.75
37170;BME280;23062;13.952;100.608;2022-09-06T23:08:50;750.28;;;-142.63;86.03
37170;BME280;23062;13.952;100.608;2022-09-06T23:13:40;750.30;;;-142.63;85.50
37170;BME280;23062;13.952;100.608;2022-09-06T23:18:30;750.29;;;-142.63;85.42
37170;BME280;23062;13.952;100.608;2022-09-06T23:23:20;750.40;;;-142.63;84.72
37170;BME280;23062;13.952;100.608;2022-09-06T23:28:10;750.50;;;-142.63;85.09
37170;BME280;23062;13.952;100.608;2022-09-06T23:33:01;750.40;;;-142.63;85.03
37170;BME280;23062;13.952;100.608;2022-09-06T23:37:52;750.44;;;-142.63;85.18
37170;BME280;23062;13.952;100.608;2022-09-06T23:42:41;750.45;;;-142.63;85.08
37170;BME280;23062;13.952;100.608;2022-09-06T23:47:31;750.46;;;-142.63;84.97
37170;BME280;23062;13.952;100.608;2022-09-06T23:52:20;750.52;;;-142.63;84.79
37170;BME280;23062;13.952;100.608;2022-09-06T23:57:11;750.61;;;-142.63;84.18
